sensor_id;sensor_type;location;lat;lon;timestamp;pressure;altitude;pressure_sealevel;temperature;humidity
75424;BME280;64005;55.160;36.002;2022-11-18T00:01:23;98328.63;;;-6.46;75.80
75424;BME280;64005;55.160;36.002;2022-11-18T00:03:49;98334.59;;;-6.44;75.00
75424;BME280;64005;55.160;36.002;2022-11-18T00:06:21;98321.81;;;-6.48;75.52
75424;BME280;64005;55.160;36.002;2022-11-18T00:08:47;98327.81;;;-6.46;75.95
75424;BME280;64005;55.160;36.002;2022-11-18T00:11:15;98317.00;;;-6.46;75.40
75424;BME280;64005;55.160;36.002;2022-11-18T00:14:00;98319.34;;;-6.50;75.59
75424;BME280;64005;55.160;36.002;2022-11-18T00:17:05;98324.66;;;-6.55;75.69
75424;BME280;64005;55.160;36.002;2022-11-18T00:19:33;98319.50;;;-6.56;75.60
75424;BME280;64005;55.160;36.002;2022-11-18T00:22:00;98324.34;;;-6.58;75.99
75424;BME280;64005;55.160;36.002;2022-11-18T00:24:26;98326.31;;;-6.54;75.58
75424;BME280;64005;55.160;36.002;2022-11-18T00:26:53;98316.78;;;-6.56;75.38
75424;BME280;64005;55.160;36.002;2022-11-18T00:29:19;98318.66;;;-6.57;75.99
75424;BME280;64005;55.160;36.002;2022-11-18T00:31:46;98306.72;;;-6.61;75.23
75424;BME280;64005;55.160;36.002;2022-11-18T00:34:15;98320.00;;;-6.59;75.60
75424;BME280;64005;55.160;36.002;2022-11-18T00:36:42;98312.94;;;-6.60;75.89
75424;BME280;64005;55.160;36.002;2022-11-18T00:39:12;98308.91;;;-6.58;75.61
75424;BME280;64005;55.160;36.002;2022-11-18T00:41:39;98296.38;;;-6.64;75.65
75424;BME280;64005;55.160;36.002;2022-11-18T00:44:23;98302.78;;;-6.53;75.68
75424;BME280;64005;55.160;36.002;2022-11-18T00:46:49;98304.44;;;-6.52;75.31
75424;BME280;64005;55.160;36.002;2022-11-18T00:49:15;98305.09;;;-6.45;75.39
75424;BME280;64005;55.160;36.002;2022-11-18T00:51:40;98301.06;;;-6.43;75.16
75424;BME280;64005;55.160;36.002;2022-11-18T00:54:06;98299.53;;;-6.38;75.69
75424;BME280;64005;55.160;36.002;2022-11-18T00:56:32;98299.84;;;-6.35;75.10
75424;BME280;64005;55.160;36.002;2022-11-18T00:58:58;98299.13;;;-6.30;75.65
75424;BME280;64005;55.160;36.002;2022-11-18T01:01:24;98306.16;;;-6.29;74.93
75424;BME280;64005;55.160;36.002;2022-11-18T01:03:50;98304.63;;;-6.25;75.38
75424;BME280;64005;55.160;36.002;2022-11-18T01:06:16;98273.53;;;-6.39;75.47
75424;BME280;64005;55.160;36.002;2022-11-18T01:08:42;98303.88;;;-6.21;75.32
75424;BME280;64005;55.160;36.002;2022-11-18T01:11:08;98300.69;;;-6.18;75.11
75424;BME280;64005;55.160;36.002;2022-11-18T01:13:52;98290.19;;;-6.14;74.84
75424;BME280;64005;55.160;36.002;2022-11-18T01:16:20;98292.50;;;-6.06;75.26
75424;BME280;64005;55.160;36.002;2022-11-18T01:18:46;98288.22;;;-6.02;74.87
75424;BME280;64005;55.160;36.002;2022-11-18T01:21:12;98291.00;;;-5.97;74.68
75424;BME280;64005;55.160;36.002;2022-11-18T01:23:38;98271.16;;;-6.03;74.76
75424;BME280;64005;55.160;36.002;2022-11-18T01:26:09;98285.34;;;-5.95;74.92
75424;BME280;64005;55.160;36.002;2022-11-18T01:28:35;98286.97;;;-5.94;74.37
75424;BME280;64005;55.160;36.002;2022-11-18T01:31:09;98284.84;;;-5.92;74.44
75424;BME280;64005;55.160;36.002;2022-11-18T01:33:35;98285.41;;;-5.90;74.52
75424;BME280;64005;55.160;36.002;2022-11-18T01:36:01;98286.22;;;-5.90;74.51
75424;BME280;64005;55.160;36.002;2022-11-18T01:38:27;98286.22;;;-5.90;74.44
75424;BME280;64005;55.160;36.002;2022-11-18T01:40:54;98271.31;;;-5.92;74.49
75424;BME280;64005;55.160;36.002;2022-11-18T01:43:21;98284.84;;;-5.92;74.63
75424;BME280;64005;55.160;36.002;2022-11-18T01:45:49;98277.56;;;-5.92;74.91
75424;BME280;64005;55.160;36.002;2022-11-18T01:51:00;98281.31;;;-5.93;74.76
75424;BME280;64005;55.160;36.002;2022-11-18T01:53:31;98251.25;;;-6.13;74.20
75424;BME280;64005;55.160;36.002;2022-11-18T01:56:02;98274.75;;;-5.97;74.31
75424;BME280;64005;55.160;36.002;2022-11-18T01:58:36;98275.31;;;-5.95;74.37
75424;BME280;64005;55.160;36.002;2022-11-18T02:01:04;98273.44;;;-5.94;74.67
75424;BME280;64005;55.160;36.002;2022-11-18T02:03:31;98277.28;;;-5.90;74.29
75424;BME280;64005;55.160;36.002;2022-11-18T02:05:58;98279.16;;;-5.91;74.46
75424;BME280;64005;55.160;36.002;2022-11-18T02:08:25;98269.34;;;-5.97;74.25
75424;BME280;64005;55.160;36.002;2022-11-18T02:10:51;98274.56;;;-5.90;74.08
75424;BME280;64005;55.160;36.002;2022-11-18T02:13:17;98276.97;;;-5.94;74.30
75424;BME280;64005;55.160;36.002;2022-11-18T02:16:08;98275.81;;;-5.98;74.51
75424;BME280;64005;55.160;36.002;2022-11-18T02:32:27;98267.13;;;-6.00;74.13
75424;BME280;64005;55.160;36.002;2022-11-18T02:35:40;98273.69;;;-5.96;74.44
75424;BME280;64005;55.160;36.002;2022-11-18T02:38:03;98287.16;;;-6.01;74.14
75424;BME280;64005;55.160;36.002;2022-11-18T02:40:35;98267.38;;;-6.02;74.47
75424;BME280;64005;55.160;36.002;2022-11-18T02:43:18;98270.91;;;-6.01;74.36
75424;BME280;64005;55.160;36.002;2022-11-18T02:45:47;98279.19;;;-6.08;74.72
75424;BME280;64005;55.160;36.002;2022-11-18T02:48:16;98270.56;;;-6.05;73.89
75424;BME280;64005;55.160;36.002;2022-11-18T02:50:45;98280.09;;;-6.02;73.89
75424;BME280;64005;55.160;36.002;2022-11-18T02:53:14;98282.81;;;-6.02;74.52
75424;BME280;64005;55.160;36.002;2022-11-18T02:55:43;98277.97;;;-6.00;73.70
75424;BME280;64005;55.160;36.002;2022-11-18T02:58:10;98279.34;;;-5.97;74.32
75424;BME280;64005;55.160;36.002;2022-11-18T03:00:38;98281.06;;;-5.91;74.21
75424;BME280;64005;55.160;36.002;2022-11-18T03:08:22;98275.91;;;-5.93;74.03
75424;BME280;64005;55.160;36.002;2022-11-18T03:11:09;98273.75;;;-5.91;74.01
75424;BME280;64005;55.160;36.002;2022-11-18T03:14:08;98277.56;;;-5.92;73.97
75424;BME280;64005;55.160;36.002;2022-11-18T03:16:58;98268.84;;;-5.94;74.19
75424;BME280;64005;55.160;36.002;2022-11-18T03:25:38;98260.16;;;-5.96;73.45
75424;BME280;64005;55.160;36.002;2022-11-18T03:28:16;98262.84;;;-5.96;73.70
75424;BME280;64005;55.160;36.002;2022-11-18T03:30:49;98253.59;;;-6.00;73.43
75424;BME280;64005;55.160;36.002;2022-11-18T03:33:21;98260.16;;;-5.96;73.67
75424;BME280;64005;55.160;36.002;2022-11-18T03:35:51;98257.44;;;-5.96;73.59
75424;BME280;64005;55.160;36.002;2022-11-18T03:38:23;98254.97;;;-5.97;73.89
75424;BME280;64005;55.160;36.002;2022-11-18T03:40:56;98263.38;;;-5.99;74.12
75424;BME280;64005;55.160;36.002;2022-11-18T03:43:27;98256.06;;;-5.98;73.87
75424;BME280;64005;55.160;36.002;2022-11-18T03:45:59;98265.25;;;-5.99;73.53
75424;BME280;64005;55.160;36.002;2022-11-18T03:48:32;98266.63;;;-5.97;73.58
75424;BME280;64005;55.160;36.002;2022-11-18T03:51:05;98265.81;;;-5.97;73.69
75424;BME280;64005;55.160;36.002;2022-11-18T03:53:36;98263.38;;;-5.99;73.77
75424;BME280;64005;55.160;36.002;2022-11-18T03:56:11;98263.09;;;-5.97;74.04
75424;BME280;64005;55.160;36.002;2022-11-18T03:58:44;98268.50;;;-5.97;73.76
75424;BME280;64005;55.160;36.002;2022-11-18T04:01:33;98272.88;;;-5.96;73.43
75424;BME280;64005;55.160;36.002;2022-11-18T04:04:03;98266.38;;;-5.95;73.98
75424;BME280;64005;55.160;36.002;2022-11-18T04:06:35;98260.97;;;-5.95;73.89
75424;BME280;64005;55.160;36.002;2022-11-18T04:09:12;98265.56;;;-5.96;73.85
75424;BME280;64005;55.160;36.002;2022-11-18T04:11:43;98250.25;;;-6.07;73.73
75424;BME280;64005;55.160;36.002;2022-11-18T04:14:36;98264.44;;;-6.00;73.32
75424;BME280;64005;55.160;36.002;2022-11-18T04:17:18;98259.56;;;-5.98;73.43
75424;BME280;64005;55.160;36.002;2022-11-18T04:19:45;98260.38;;;-5.97;73.36
75424;BME280;64005;55.160;36.002;2022-11-18T04:22:11;98269.09;;;-5.95;73.71
75424;BME280;64005;55.160;36.002;2022-11-18T04:24:38;98261.56;;;-5.93;73.60
75424;BME280;64005;55.160;36.002;2022-11-18T04:27:04;98272.03;;;-5.97;73.35
75424;BME280;64005;55.160;36.002;2022-11-18T04:29:31;98260.97;;;-5.95;73.69
75424;BME280;64005;55.160;36.002;2022-11-18T04:31:59;98250.38;;;-5.97;73.58
75424;BME280;64005;55.160;36.002;2022-11-18T04:34:25;98256.31;;;-6.00;74.07
75424;BME280;64005;55.160;36.002;2022-11-18T04:38:50;98242.13;;;-6.07;73.23
75424;BME280;64005;55.160;36.002;2022-11-18T04:41:16;98242.72;;;-6.05;73.73
75424;BME280;64005;55.160;36.002;2022-11-18T04:43:41;98250.56;;;-6.04;73.74
75424;BME280;64005;55.160;36.002;2022-11-18T04:46:07;98252.19;;;-6.03;73.48
75424;BME280;64005;55.160;36.002;2022-11-18T04:48:33;98258.50;;;-5.97;72.98
75424;BME280;64005;55.160;36.002;2022-11-18T04:51:05;98263.38;;;-5.99;72.94
75424;BME280;64005;55.160;36.002;2022-11-18T04:53:30;98249.34;;;-6.13;73.55
75424;BME280;64005;55.160;36.002;2022-11-18T04:56:04;98254.50;;;-6.11;73.82
75424;BME280;64005;55.160;36.002;2022-11-18T04:58:30;98259.91;;;-6.11;74.07
75424;BME280;64005;55.160;36.002;2022-11-18T05:00:56;98248.19;;;-6.17;73.23
75424;BME280;64005;55.160;36.002;2022-11-18T05:03:21;98237.88;;;-6.20;73.80
75424;BME280;64005;55.160;36.002;2022-11-18T05:05:47;98251.00;;;-6.12;73.76
75424;BME280;64005;55.160;36.002;2022-11-18T05:08:13;98244.41;;;-6.16;73.61
75424;BME280;64005;55.160;36.002;2022-11-18T05:10:38;98242.59;;;-6.10;73.97
75424;BME280;64005;55.160;36.002;2022-11-18T05:13:04;98250.34;;;-6.19;73.50
75424;BME280;64005;55.160;36.002;2022-11-18T05:15:31;98239.25;;;-6.17;73.78
75424;BME280;64005;55.160;36.002;2022-11-18T05:17:56;98219.56;;;-6.29;73.18
75424;BME280;64005;55.160;36.002;2022-11-18T05:20:22;98247.13;;;-6.16;73.27
75424;BME280;64005;55.160;36.002;2022-11-18T05:22:48;98236.22;;;-6.21;73.56
75424;BME280;64005;55.160;36.002;2022-11-18T05:25:13;98258.53;;;-6.14;73.75
75424;BME280;64005;55.160;36.002;2022-11-18T05:27:39;98210.72;;;-6.42;73.35
75424;BME280;64005;55.160;36.002;2022-11-18T05:30:05;98250.91;;;-6.17;73.09
75424;BME280;64005;55.160;36.002;2022-11-18T05:32:31;98250.66;;;-6.15;73.43
75424;BME280;64005;55.160;36.002;2022-11-18T05:34:57;98257.38;;;-6.18;73.84
75424;BME280;64005;55.160;36.002;2022-11-18T05:37:23;98232.13;;;-6.40;73.88
75424;BME280;64005;55.160;36.002;2022-11-18T05:39:49;98269.84;;;-6.17;73.71
75424;BME280;64005;55.160;36.002;2022-11-18T05:42:14;98258.19;;;-6.17;73.24
75424;BME280;64005;55.160;36.002;2022-11-18T05:44:58;98260.34;;;-6.19;73.89
75424;BME280;64005;55.160;36.002;2022-11-18T05:47:25;98264.94;;;-6.20;73.63
75424;BME280;64005;55.160;36.002;2022-11-18T05:49:51;98263.59;;;-6.17;73.96
75424;BME280;64005;55.160;36.002;2022-11-18T05:52:17;98266.66;;;-6.14;73.48
75424;BME280;64005;55.160;36.002;2022-11-18T05:54:48;98277.25;;;-6.12;73.52
75424;BME280;64005;55.160;36.002;2022-11-18T05:57:14;98274.53;;;-6.12;73.43
75424;BME280;64005;55.160;36.002;2022-11-18T05:59:40;98266.41;;;-6.12;73.16
75424;BME280;64005;55.160;36.002;2022-11-18T06:02:14;98271.25;;;-6.14;73.80
75424;BME280;64005;55.160;36.002;2022-11-18T06:04:48;98257.19;;;-6.11;73.47
75424;BME280;64005;55.160;36.002;2022-11-18T06:07:27;98269.50;;;-6.04;73.57
75424;BME280;64005;55.160;36.002;2022-11-18T06:09:58;98267.97;;;-5.99;72.92
75424;BME280;64005;55.160;36.002;2022-11-18T06:12:27;98276.09;;;-5.99;73.44
75424;BME280;64005;55.160;36.002;2022-11-18T06:15:00;98266.31;;;-6.00;72.74
75424;BME280;64005;55.160;36.002;2022-11-18T06:17:42;98270.91;;;-6.01;73.21
75424;BME280;64005;55.160;36.002;2022-11-18T06:20:09;98273.09;;;-5.98;72.75
75424;BME280;64005;55.160;36.002;2022-11-18T06:22:35;98270.22;;;-5.91;73.29
75424;BME280;64005;55.160;36.002;2022-11-18T06:25:02;98278.69;;;-5.88;72.60
75424;BME280;64005;55.160;36.002;2022-11-18T06:27:30;98282.47;;;-5.89;72.85
75424;BME280;64005;55.160;36.002;2022-11-18T06:29:56;98286.25;;;-5.85;72.68
75424;BME280;64005;55.160;36.002;2022-11-18T06:32:21;98288.50;;;-5.82;72.84
75424;BME280;64005;55.160;36.002;2022-11-18T06:34:47;98285.53;;;-5.80;72.75
75424;BME280;64005;55.160;36.002;2022-11-18T06:37:13;98284.72;;;-5.81;72.55
75424;BME280;64005;55.160;36.002;2022-11-18T06:39:40;98287.91;;;-5.84;72.96
75424;BME280;64005;55.160;36.002;2022-11-18T06:42:05;98292.84;;;-5.81;73.19
75424;BME280;64005;55.160;36.002;2022-11-18T06:44:31;98296.63;;;-5.82;73.05
75424;BME280;64005;55.160;36.002;2022-11-18T06:46:57;98293.97;;;-5.77;73.01
75424;BME280;64005;55.160;36.002;2022-11-18T06:49:24;98294.56;;;-5.75;72.47
75424;BME280;64005;55.160;36.002;2022-11-18T06:51:51;98291.03;;;-5.75;73.04
75424;BME280;64005;55.160;36.002;2022-11-18T06:54:17;98293.97;;;-5.77;72.98
75424;BME280;64005;55.160;36.002;2022-11-18T06:56:43;98296.69;;;-5.77;72.59
75424;BME280;64005;55.160;36.002;2022-11-18T06:59:09;98291.03;;;-5.75;72.40
75424;BME280;64005;55.160;36.002;2022-11-18T07:01:36;98298.66;;;-5.72;72.41
75424;BME280;64005;55.160;36.002;2022-11-18T07:04:03;98296.28;;;-5.69;72.63
75424;BME280;64005;55.160;36.002;2022-11-18T07:06:32;98285.00;;;-5.61;72.60
75424;BME280;64005;55.160;36.002;2022-11-18T07:09:00;98287.78;;;-5.55;72.53
75424;BME280;64005;55.160;36.002;2022-11-18T07:11:27;98286.47;;;-5.53;72.29
75424;BME280;64005;55.160;36.002;2022-11-18T07:13:53;98292.78;;;-5.47;71.98
75424;BME280;64005;55.160;36.002;2022-11-18T07:16:21;98283.31;;;-5.45;72.14
75424;BME280;64005;55.160;36.002;2022-11-18T07:18:48;98282.06;;;-5.37;71.88
75424;BME280;64005;55.160;36.002;2022-11-18T07:21:18;98288.88;;;-5.35;71.85
75424;BME280;64005;55.160;36.002;2022-11-18T07:23:45;98285.75;;;-5.27;71.64
75424;BME280;64005;55.160;36.002;2022-11-18T07:26:11;98284.72;;;-5.21;71.67
75424;BME280;64005;55.160;36.002;2022-11-18T07:28:38;98297.75;;;-5.17;71.85
75424;BME280;64005;55.160;36.002;2022-11-18T07:31:12;98300.28;;;-5.11;71.89
75424;BME280;64005;55.160;36.002;2022-11-18T07:33:39;98293.31;;;-5.07;72.00
75424;BME280;64005;55.160;36.002;2022-11-18T07:36:12;98301.97;;;-5.05;71.55
75424;BME280;64005;55.160;36.002;2022-11-18T07:38:38;98298.78;;;-5.02;71.43
75424;BME280;64005;55.160;36.002;2022-11-18T07:41:12;98299.34;;;-5.00;71.06
75424;BME280;64005;55.160;36.002;2022-11-18T07:43:40;98300.28;;;-4.89;71.13
75424;BME280;64005;55.160;36.002;2022-11-18T07:46:16;98302.78;;;-4.83;71.18
75424;BME280;64005;55.160;36.002;2022-11-18T07:48:44;98292.19;;;-4.84;70.55
75424;BME280;64005;55.160;36.002;2022-11-18T07:51:11;98302.84;;;-4.77;70.92
75424;BME280;64005;55.160;36.002;2022-11-18T07:53:37;98298.28;;;-4.72;70.56
75424;BME280;64005;55.160;36.002;2022-11-18T07:56:04;98303.47;;;-4.70;71.21
75424;BME280;64005;55.160;36.002;2022-11-18T07:58:30;98301.56;;;-4.70;70.38
75424;BME280;64005;55.160;36.002;2022-11-18T08:00:56;98275.66;;;-4.83;70.76
75424;BME280;64005;55.160;36.002;2022-11-18T08:03:26;98303.22;;;-4.69;70.62
75424;BME280;64005;55.160;36.002;2022-11-18T08:05:59;98305.09;;;-4.69;70.35
75424;BME280;64005;55.160;36.002;2022-11-18T08:08:26;98307.25;;;-4.71;70.40
75424;BME280;64005;55.160;36.002;2022-11-18T08:10:57;98321.50;;;-4.59;70.39
75424;BME280;64005;55.160;36.002;2022-11-18T08:13:24;98312.28;;;-4.58;70.86
75424;BME280;64005;55.160;36.002;2022-11-18T08:15:50;98305.56;;;-4.51;70.61
75424;BME280;64005;55.160;36.002;2022-11-18T08:18:16;98312.22;;;-4.36;70.29
75424;BME280;64005;55.160;36.002;2022-11-18T08:20:42;98305.31;;;-4.49;70.51
75424;BME280;64005;55.160;36.002;2022-11-18T08:23:10;98303.25;;;-4.37;70.24
75424;BME280;64005;55.160;36.002;2022-11-18T08:25:36;98316.09;;;-4.32;69.87
75424;BME280;64005;55.160;36.002;2022-11-18T08:28:02;98305.97;;;-4.37;70.16
75424;BME280;64005;55.160;36.002;2022-11-18T08:30:28;98319.34;;;-4.30;69.72
75424;BME280;64005;55.160;36.002;2022-11-18T08:32:54;98328.75;;;-4.38;70.11
75424;BME280;64005;55.160;36.002;2022-11-18T08:35:20;98325.50;;;-4.40;69.85
75424;BME280;64005;55.160;36.002;2022-11-18T08:37:46;98324.38;;;-4.44;70.25
75424;BME280;64005;55.160;36.002;2022-11-18T08:40:12;98325.38;;;-4.50;70.49
75424;BME280;64005;55.160;36.002;2022-11-18T08:42:38;98325.91;;;-4.53;70.27
75424;BME280;64005;55.160;36.002;2022-11-18T08:45:05;98323.44;;;-4.55;70.48
75424;BME280;64005;55.160;36.002;2022-11-18T08:47:34;98336.00;;;-4.49;70.08
75424;BME280;64005;55.160;36.002;2022-11-18T08:50:01;98334.69;;;-4.46;69.89
75424;BME280;64005;55.160;36.002;2022-11-18T08:52:29;98334.97;;;-4.43;69.95
75424;BME280;64005;55.160;36.002;2022-11-18T08:54:55;98328.97;;;-4.45;70.11
75424;BME280;64005;55.160;36.002;2022-11-18T08:57:21;98329.78;;;-4.44;69.73
75424;BME280;64005;55.160;36.002;2022-11-18T08:59:47;98327.16;;;-4.39;69.89
75424;BME280;64005;55.160;36.002;2022-11-18T09:02:15;98326.06;;;-4.38;69.57
75424;BME280;64005;55.160;36.002;2022-11-18T09:04:42;98326.81;;;-4.43;69.28
75424;BME280;64005;55.160;36.002;2022-11-18T09:07:08;98328.56;;;-4.31;69.39
75424;BME280;64005;55.160;36.002;2022-11-18T09:09:34;98334.31;;;-4.28;69.43
75424;BME280;64005;55.160;36.002;2022-11-18T09:12:01;98334.81;;;-4.31;69.42
75424;BME280;64005;55.160;36.002;2022-11-18T09:14:27;98340.00;;;-4.29;69.89
75424;BME280;64005;55.160;36.002;2022-11-18T09:16:53;98340.59;;;-4.22;69.49
75424;BME280;64005;55.160;36.002;2022-11-18T09:19:18;98338.97;;;-4.23;69.24
75424;BME280;64005;55.160;36.002;2022-11-18T09:21:44;98334.69;;;-4.19;69.38
75424;BME280;64005;55.160;36.002;2022-11-18T09:24:10;98337.44;;;-4.14;69.47
75424;BME280;64005;55.160;36.002;2022-11-18T09:26:36;98339.13;;;-4.08;69.21
75424;BME280;64005;55.160;36.002;2022-11-18T09:29:03;98343.16;;;-4.11;69.11
75424;BME280;64005;55.160;36.002;2022-11-18T09:31:28;98338.50;;;-4.15;69.53
75424;BME280;64005;55.160;36.002;2022-11-18T09:33:54;98347.53;;;-4.05;69.28
75424;BME280;64005;55.160;36.002;2022-11-18T09:36:22;98354.09;;;-4.06;69.14
75424;BME280;64005;55.160;36.002;2022-11-18T09:38:49;98346.19;;;-4.07;69.29
75424;BME280;64005;55.160;36.002;2022-11-18T09:46:43;98361.31;;;-4.16;69.29
75424;BME280;64005;55.160;36.002;2022-11-18T09:49:31;98368.38;;;-4.15;69.42
75424;BME280;64005;55.160;36.002;2022-11-18T09:52:05;98362.94;;;-4.15;69.08
75424;BME280;64005;55.160;36.002;2022-11-18T09:54:36;98364.25;;;-4.18;69.43
75424;BME280;64005;55.160;36.002;2022-11-18T09:57:16;98362.06;;;-4.21;69.24
75424;BME280;64005;55.160;36.002;2022-11-18T09:59:43;98364.78;;;-4.21;68.92
75424;BME280;64005;55.160;36.002;2022-11-18T10:04:38;98369.19;;;-4.15;69.43
75424;BME280;64005;55.160;36.002;2022-11-18T10:07:31;98374.63;;;-4.15;68.99
75424;BME280;64005;55.160;36.002;2022-11-18T10:10:02;98376.47;;;-4.20;69.71
75424;BME280;64005;55.160;36.002;2022-11-18T10:12:40;98378.13;;;-4.19;69.07
75424;BME280;64005;55.160;36.002;2022-11-18T10:15:20;98370.84;;;-4.14;69.03
75424;BME280;64005;55.160;36.002;2022-11-18T10:18:13;98375.25;;;-4.08;69.99
75424;BME280;64005;55.160;36.002;2022-11-18T10:23:49;98382.53;;;-4.13;68.65
75424;BME280;64005;55.160;36.002;2022-11-18T10:26:34;98369.66;;;-4.23;69.39
75424;BME280;64005;55.160;36.002;2022-11-18T10:29:01;98375.91;;;-4.22;69.21
75424;BME280;64005;55.160;36.002;2022-11-18T10:31:27;98384.91;;;-4.17;68.92
75424;BME280;64005;55.160;36.002;2022-11-18T10:34:00;98373.31;;;-4.12;68.90
75424;BME280;64005;55.160;36.002;2022-11-18T10:36:29;98384.16;;;-4.12;69.12
75424;BME280;64005;55.160;36.002;2022-11-18T10:39:14;98385.25;;;-4.13;69.15
75424;BME280;64005;55.160;36.002;2022-11-18T10:41:44;98385.38;;;-4.25;69.16
75424;BME280;64005;55.160;36.002;2022-11-18T10:44:36;98385.66;;;-4.26;69.48
75424;BME280;64005;55.160;36.002;2022-11-18T10:47:28;98389.44;;;-4.27;68.76
75424;BME280;64005;55.160;36.002;2022-11-18T10:49:57;98386.69;;;-4.32;69.04
75424;BME280;64005;55.160;36.002;2022-11-18T10:52:24;98382.31;;;-4.33;69.24
75424;BME280;64005;55.160;36.002;2022-11-18T10:55:15;98388.09;;;-4.25;69.03
75424;BME280;64005;55.160;36.002;2022-11-18T10:57:43;98385.44;;;-4.20;69.06
75424;BME280;64005;55.160;36.002;2022-11-18T11:00:41;98393.84;;;-4.21;69.19
75424;BME280;64005;55.160;36.002;2022-11-18T11:03:42;98390.25;;;-4.27;69.24
75424;BME280;64005;55.160;36.002;2022-11-18T11:06:27;98403.25;;;-4.29;69.04
75424;BME280;64005;55.160;36.002;2022-11-18T11:11:39;98408.94;;;-4.30;69.31
75424;BME280;64005;55.160;36.002;2022-11-18T11:14:27;98409.75;;;-4.30;69.07
75424;BME280;64005;55.160;36.002;2022-11-18T11:19:28;98427.75;;;-4.24;69.19
75424;BME280;64005;55.160;36.002;2022-11-18T11:21:56;98431.28;;;-4.23;69.46
75424;BME280;64005;55.160;36.002;2022-11-18T11:24:24;98428.06;;;-4.20;69.28
75424;BME280;64005;55.160;36.002;2022-11-18T11:32:22;98437.78;;;-4.24;69.40
75424;BME280;64005;55.160;36.002;2022-11-18T11:37:55;98445.00;;;-4.35;69.66
75424;BME280;64005;55.160;36.002;2022-11-18T11:40:44;98455.22;;;-4.42;69.81
75424;BME280;64005;55.160;36.002;2022-11-18T11:46:27;98461.63;;;-4.53;70.10
75424;BME280;64005;55.160;36.002;2022-11-18T11:51:54;98469.19;;;-4.55;69.78
75424;BME280;64005;55.160;36.002;2022-11-18T11:54:36;98465.63;;;-4.56;69.79
75424;BME280;64005;55.160;36.002;2022-11-18T12:00:08;98472.13;;;-4.57;69.88
75424;BME280;64005;55.160;36.002;2022-11-18T12:05:29;98468.13;;;-4.54;69.58
75424;BME280;64005;55.160;36.002;2022-11-18T12:10:50;98478.16;;;-4.55;69.64
75424;BME280;64005;55.160;36.002;2022-11-18T12:13:36;98472.38;;;-4.58;70.14
75424;BME280;64005;55.160;36.002;2022-11-18T12:26:47;98467.53;;;-4.56;70.14
75424;BME280;64005;55.160;36.002;2022-11-18T12:31:54;98471.06;;;-4.56;70.04
75424;BME280;64005;55.160;36.002;2022-11-18T12:36:54;98471.41;;;-4.52;70.01
75424;BME280;64005;55.160;36.002;2022-11-18T12:44:34;98476.31;;;-4.49;70.22
75424;BME280;64005;55.160;36.002;2022-11-18T12:47:01;98477.38;;;-4.50;70.01
75424;BME280;64005;55.160;36.002;2022-11-18T12:51:55;98481.34;;;-4.58;70.53
75424;BME280;64005;55.160;36.002;2022-11-18T12:54:33;98485.41;;;-4.60;70.23
75424;BME280;64005;55.160;36.002;2022-11-18T12:57:21;98486.97;;;-4.64;70.47
75424;BME280;64005;55.160;36.002;2022-11-18T12:59:48;98485.06;;;-4.64;70.31
75424;BME280;64005;55.160;36.002;2022-11-18T13:05:11;98461.44;;;-4.85;70.33
75424;BME280;64005;55.160;36.002;2022-11-18T13:07:43;98485.66;;;-4.78;70.50
75424;BME280;64005;55.160;36.002;2022-11-18T13:10:30;98493.03;;;-4.79;70.44
75424;BME280;64005;55.160;36.002;2022-11-18T13:12:57;98460.19;;;-4.99;70.71
75424;BME280;64005;55.160;36.002;2022-11-18T13:15:23;98488.56;;;-4.85;70.74
75424;BME280;64005;55.160;36.002;2022-11-18T13:18:17;98483.00;;;-4.95;70.95
75424;BME280;64005;55.160;36.002;2022-11-18T13:20:53;98477.34;;;-5.10;70.77
75424;BME280;64005;55.160;36.002;2022-11-18T13:29:14;98515.72;;;-5.02;71.32
75424;BME280;64005;55.160;36.002;2022-11-18T13:31:56;98514.66;;;-5.01;71.05
75424;BME280;64005;55.160;36.002;2022-11-18T13:34:26;98512.94;;;-5.07;70.71
75424;BME280;64005;55.160;36.002;2022-11-18T13:36:55;98514.66;;;-5.01;70.94
75424;BME280;64005;55.160;36.002;2022-11-18T13:39:30;98526.88;;;-4.98;71.13
75424;BME280;64005;55.160;36.002;2022-11-18T13:42:05;98522.78;;;-5.01;71.08
75424;BME280;64005;55.160;36.002;2022-11-18T13:44:34;98528.22;;;-5.01;71.20
75424;BME280;64005;55.160;36.002;2022-11-18T13:52:27;98531.03;;;-5.12;71.27
75424;BME280;64005;55.160;36.002;2022-11-18T13:54:55;98537.59;;;-5.08;71.18
75424;BME280;64005;55.160;36.002;2022-11-18T13:57:24;98536.69;;;-5.14;71.47
75424;BME280;64005;55.160;36.002;2022-11-18T13:59:51;98543.41;;;-5.16;71.16
75424;BME280;64005;55.160;36.002;2022-11-18T14:02:20;98535.44;;;-5.23;71.29
75424;BME280;64005;55.160;36.002;2022-11-18T14:04:55;98544.91;;;-5.26;71.05
75424;BME280;64005;55.160;36.002;2022-11-18T14:07:26;98551.63;;;-5.28;71.58
75424;BME280;64005;55.160;36.002;2022-11-18T14:09:58;98549.38;;;-5.31;72.06
75424;BME280;64005;55.160;36.002;2022-11-18T14:12:28;98549.66;;;-5.33;71.64
75424;BME280;64005;55.160;36.002;2022-11-18T14:15:31;98557.69;;;-5.38;71.77
75424;BME280;64005;55.160;36.002;2022-11-18T14:17:59;98557.69;;;-5.38;71.92
75424;BME280;64005;55.160;36.002;2022-11-18T14:20:28;98557.44;;;-5.36;71.59
75424;BME280;64005;55.160;36.002;2022-11-18T14:23:02;98562.88;;;-5.36;71.70
75424;BME280;64005;55.160;36.002;2022-11-18T14:25:32;98569.34;;;-5.37;72.03
75424;BME280;64005;55.160;36.002;2022-11-18T14:28:18;98562.63;;;-5.35;71.60
75424;BME280;64005;55.160;36.002;2022-11-18T14:33:35;98566.91;;;-5.39;71.87
75424;BME280;64005;55.160;36.002;2022-11-18T14:36:13;98565.25;;;-5.40;72.13
75424;BME280;64005;55.160;36.002;2022-11-18T14:38:45;98582.34;;;-5.39;71.48
75424;BME280;64005;55.160;36.002;2022-11-18T14:41:15;98573.94;;;-5.38;72.20
75424;BME280;64005;55.160;36.002;2022-11-18T14:43:41;98580.69;;;-5.40;71.69
75424;BME280;64005;55.160;36.002;2022-11-18T14:46:17;98575.50;;;-5.42;71.71
75424;BME280;64005;55.160;36.002;2022-11-18T14:48:46;98582.00;;;-5.43;72.18
75424;BME280;64005;55.160;36.002;2022-11-18T14:51:13;98580.84;;;-5.47;71.63
75424;BME280;64005;55.160;36.002;2022-11-18T14:53:40;98592.84;;;-5.43;72.16
75424;BME280;64005;55.160;36.002;2022-11-18T14:56:20;98601.31;;;-5.39;71.83
75424;BME280;64005;55.160;36.002;2022-11-18T14:58:47;98596.22;;;-5.36;72.04